sensor_id;sensor_type;location;lat;lon;timestamp;temperature;humidity
33149;DHT22;19506;51.040;3.856;2023-03-17T16:19:30;17.10;99.90
33149;DHT22;19506;51.040;3.856;2023-03-17T16:21:56;17.10;99.90
33149;DHT22;19506;51.040;3.856;2023-03-17T16:24:24;17.20;99.90
33149;DHT22;19506;51.040;3.856;2023-03-17T16:26:50;17.20;99.90
33149;DHT22;19506;51.040;3.856;2023-03-17T16:29:16;17.20;99.90
33149;DHT22;19506;51.040;3.856;2023-03-17T16:31:45;17.20;99.90
33149;DHT22;19506;51.040;3.856;2023-03-17T16:34:16;17.20;99.90
33149;DHT22;19506;51.040;3.856;2023-03-17T16:36:43;17.30;99.90
33149;DHT22;19506;51.040;3.856;2023-03-17T16:39:16;17.30;99.90
33149;DHT22;19506;51.040;3.856;2023-03-17T16:41:44;17.30;99.90
33149;DHT22;19506;51.040;3.856;2023-03-17T16:44:11;17.40;99.90
33149;DHT22;19506;51.040;3.856;2023-03-17T16:46:38;17.50;99.90
33149;DHT22;19506;51.040;3.856;2023-03-17T16:49:04;17.50;99.90
33149;DHT22;19506;51.040;3.856;2023-03-17T16:51:30;17.60;99.90
33149;DHT22;19506;51.040;3.856;2023-03-17T16:53:56;17.60;99.90
33149;DHT22;19506;51.040;3.856;2023-03-17T16:56:24;17.70;99.90
33149;DHT22;19506;51.040;3.856;2023-03-17T16:58:51;17.70;99.90
33149;DHT22;19506;51.040;3.856;2023-03-17T17:01:19;17.70;99.90
33149;DHT22;19506;51.040;3.856;2023-03-17T17:03:46;17.70;99.90
33149;DHT22;19506;51.040;3.856;2023-03-17T17:06:12;17.70;99.90
33149;DHT22;19506;51.040;3.856;2023-03-17T17:08:42;17.70;99.90
33149;DHT22;19506;51.040;3.856;2023-03-17T17:11:08;17.60;99.90
33149;DHT22;19506;51.040;3.856;2023-03-17T17:13:40;17.60;99.90
33149;DHT22;19506;51.040;3.856;2023-03-17T17:16:06;17.60;99.90
33149;DHT22;19506;51.040;3.856;2023-03-17T17:18:32;17.50;99.90
33149;DHT22;19506;51.040;3.856;2023-03-17T17:20:57;17.50;99.90
33149;DHT22;19506;51.040;3.856;2023-03-17T17:23:26;17.50;99.90
33149;DHT22;19506;51.040;3.856;2023-03-17T17:25:52;17.50;99.90
33149;DHT22;19506;51.040;3.856;2023-03-17T17:28:20;17.50;99.90
33149;DHT22;19506;51.040;3.856;2023-03-17T17:30:47;17.40;99.90
33149;DHT22;19506;51.040;3.856;2023-03-17T17:33:14;17.40;99.90
33149;DHT22;19506;51.040;3.856;2023-03-17T17:35:41;17.40;99.90
33149;DHT22;19506;51.040;3.856;2023-03-17T17:38:17;17.40;99.90
33149;DHT22;19506;51.040;3.856;2023-03-17T17:40:44;17.40;99.90
33149;DHT22;19506;51.040;3.856;2023-03-17T17:43:10;17.40;99.90
33149;DHT22;19506;51.040;3.856;2023-03-17T17:45:36;17.40;99.90
33149;DHT22;19506;51.040;3.856;2023-03-17T17:48:02;17.40;99.90
33149;DHT22;19506;51.040;3.856;2023-03-17T17:50:28;17.50;99.90
33149;DHT22;19506;51.040;3.856;2023-03-17T17:52:54;17.40;99.90
33149;DHT22;19506;51.040;3.856;2023-03-17T17:55:27;17.50;99.90
33149;DHT22;19506;51.040;3.856;2023-03-17T17:57:53;17.40;99.90
33149;DHT22;19506;51.040;3.856;2023-03-17T18:00:18;17.40;99.90
33149;DHT22;19506;51.040;3.856;2023-03-17T18:02:44;17.40;99.90
33149;DHT22;19506;51.040;3.856;2023-03-17T18:05:11;17.40;99.90
33149;DHT22;19506;51.040;3.856;2023-03-17T18:07:37;17.40;99.90
33149;DHT22;19506;51.040;3.856;2023-03-17T18:10:04;17.50;99.90
33149;DHT22;19506;51.040;3.856;2023-03-17T18:12:30;17.50;99.90
33149;DHT22;19506;51.040;3.856;2023-03-17T18:14:56;17.40;99.90
33149;DHT22;19506;51.040;3.856;2023-03-17T18:17:22;17.40;99.90
33149;DHT22;19506;51.040;3.856;2023-03-17T18:19:49;17.40;99.90
33149;DHT22;19506;51.040;3.856;2023-03-17T18:22:17;17.30;99.90
33149;DHT22;19506;51.040;3.856;2023-03-17T18:25:08;17.30;99.90
33149;DHT22;19506;51.040;3.856;2023-03-17T18:27:42;17.30;99.90
33149;DHT22;19506;51.040;3.856;2023-03-17T18:30:13;17.30;99.90
33149;DHT22;19506;51.040;3.856;2023-03-17T18:33:32;17.20;99.90
33149;DHT22;19506;51.040;3.856;2023-03-17T18:39:11;17.20;99.90
33149;DHT22;19506;51.040;3.856;2023-03-17T18:41:55;17.20;99.90
33149;DHT22;19506;51.040;3.856;2023-03-17T18:44:23;17.30;99.90
33149;DHT22;19506;51.040;3.856;2023-03-17T18:46:49;17.40;99.90
33149;DHT22;19506;51.040;3.856;2023-03-17T18:49:19;17.60;99.90
33149;DHT22;19506;51.040;3.856;2023-03-17T18:51:55;17.60;99.90
33149;DHT22;19506;51.040;3.856;2023-03-17T18:54:41;17.80;99.90
33149;DHT22;19506;51.040;3.856;2023-03-17T19:00:41;18.00;99.90
33149;DHT22;19506;51.040;3.856;2023-03-17T19:03:27;18.10;99.90
33149;DHT22;19506;51.040;3.856;2023-03-17T19:06:17;18.10;99.90
33149;DHT22;19506;51.040;3.856;2023-03-17T19:09:19;18.10;99.90
33149;DHT22;19506;51.040;3.856;2023-03-17T19:12:23;18.20;99.90
33149;DHT22;19506;51.040;3.856;2023-03-17T19:14:56;18.00;99.90
33149;DHT22;19506;51.040;3.856;2023-03-17T19:18:28;17.90;99.90
33149;DHT22;19506;51.040;3.856;2023-03-17T19:21:40;17.80;99.90
33149;DHT22;19506;51.040;3.856;2023-03-17T19:25:00;17.70;99.90
33149;DHT22;19506;51.040;3.856;2023-03-17T19:30:45;17.70;99.90
33149;DHT22;19506;51.040;3.856;2023-03-17T19:33:19;17.70;99.90
33149;DHT22;19506;51.040;3.856;2023-03-17T19:35:58;17.70;99.90
33149;DHT22;19506;51.040;3.856;2023-03-17T19:39:00;17.70;99.90
33149;DHT22;19506;51.040;3.856;2023-03-17T19:41:28;17.70;99.90
33149;DHT22;19506;51.040;3.856;2023-03-17T19:44:28;17.80;99.90
33149;DHT22;19506;51.040;3.856;2023-03-17T19:50:35;18.20;99.90
33149;DHT22;19506;51.040;3.856;2023-03-17T19:53:06;18.20;99.90
33149;DHT22;19506;51.040;3.856;2023-03-17T19:55:31;18.20;99.90
33149;DHT22;19506;51.040;3.856;2023-03-17T20:00:42;18.10;99.90
33149;DHT22;19506;51.040;3.856;2023-03-17T20:03:10;18.10;99.90
33149;DHT22;19506;51.040;3.856;2023-03-17T20:05:39;18.00;99.90
33149;DHT22;19506;51.040;3.856;2023-03-17T20:11:32;18.00;99.90
33149;DHT22;19506;51.040;3.856;2023-03-17T20:14:06;18.00;99.90
33149;DHT22;19506;51.040;3.856;2023-03-17T20:17:08;17.90;99.90
33149;DHT22;19506;51.040;3.856;2023-03-17T20:19:36;18.00;99.90
33149;DHT22;19506;51.040;3.856;2023-03-17T20:22:06;18.00;99.90
33149;DHT22;19506;51.040;3.856;2023-03-17T20:25:06;18.00;99.90
33149;DHT22;19506;51.040;3.856;2023-03-17T20:28:19;17.90;99.90
33149;DHT22;19506;51.040;3.856;2023-03-17T20:31:11;17.90;99.90
33149;DHT22;19506;51.040;3.856;2023-03-17T20:33:59;17.90;99.90
33149;DHT22;19506;51.040;3.856;2023-03-17T20:36:30;17.90;99.90
33149;DHT22;19506;51.040;3.856;2023-03-17T20:38:56;17.90;99.90
33149;DHT22;19506;51.040;3.856;2023-03-17T20:41:23;17.90;99.90
33149;DHT22;19506;51.040;3.856;2023-03-17T20:43:49;17.80;99.90
33149;DHT22;19506;51.040;3.856;2023-03-17T20:46:21;17.80;99.90
33149;DHT22;19506;51.040;3.856;2023-03-17T20:48:48;17.80;99.90
33149;DHT22;19506;51.040;3.856;2023-03-17T20:51:17;17.80;99.90
33149;DHT22;19506;51.040;3.856;2023-03-17T20:53:44;17.80;99.90
33149;DHT22;19506;51.040;3.856;2023-03-17T20:56:17;17.80;99.90
33149;DHT22;19506;51.040;3.856;2023-03-17T20:58:46;17.80;99.90
33149;DHT22;19506;51.040;3.856;2023-03-17T21:01:14;17.80;99.90
33149;DHT22;19506;51.040;3.856;2023-03-17T21:03:41;17.80;99.90
33149;DHT22;19506;51.040;3.856;2023-03-17T21:06:08;17.80;99.90
33149;DHT22;19506;51.040;3.856;2023-03-17T21:08:41;17.80;99.90
33149;DHT22;19506;51.040;3.856;2023-03-17T21:11:16;17.80;99.90
33149;DHT22;19506;51.040;3.856;2023-03-17T21:13:42;17.80;99.90
33149;DHT22;19506;51.040;3.856;2023-03-17T21:16:17;17.80;99.90
33149;DHT22;19506;51.040;3.856;2023-03-17T21:18:44;17.80;99.90
33149;DHT22;19506;51.040;3.856;2023-03-17T21:21:11;17.70;99.90
33149;DHT22;19506;51.040;3.856;2023-03-17T21:23:37;17.80;99.90
33149;DHT22;19506;51.040;3.856;2023-03-17T21:26:03;17.70;99.90
33149;DHT22;19506;51.040;3.856;2023-03-17T21:28:29;17.80;99.90
33149;DHT22;19506;51.040;3.856;2023-03-17T21:30:58;17.70;99.90
33149;DHT22;19506;51.040;3.856;2023-03-17T21:33:23;17.70;99.90
33149;DHT22;19506;51.040;3.856;2023-03-17T21:35:49;17.70;99.90
33149;DHT22;19506;51.040;3.856;2023-03-17T21:38:15;17.70;99.90
33149;DHT22;19506;51.040;3.856;2023-03-17T21:40:41;17.70;99.90
33149;DHT22;19506;51.040;3.856;2023-03-17T21:43:08;17.70;99.90
33149;DHT22;19506;51.040;3.856;2023-03-17T21:45:34;17.60;99.90
33149;DHT22;19506;51.040;3.856;2023-03-17T21:47:59;17.60;99.90
33149;DHT22;19506;51.040;3.856;2023-03-17T21:50:25;17.60;99.90
33149;DHT22;19506;51.040;3.856;2023-03-17T21:52:51;17.60;99.90
33149;DHT22;19506;51.040;3.856;2023-03-17T21:55:17;17.60;99.90
33149;DHT22;19506;51.040;3.856;2023-03-17T21:57:43;17.60;99.90
33149;DHT22;19506;51.040;3.856;2023-03-17T22:00:10;17.60;99.90
33149;DHT22;19506;51.040;3.856;2023-03-17T22:02:36;17.70;99.90
33149;DHT22;19506;51.040;3.856;2023-03-17T22:05:03;17.70;99.90
33149;DHT22;19506;51.040;3.856;2023-03-17T22:07:29;17.70;99.90
33149;DHT22;19506;51.040;3.856;2023-03-17T22:09:55;17.60;99.90
33149;DHT22;19506;51.040;3.856;2023-03-17T22:12:22;17.60;99.90
33149;DHT22;19506;51.040;3.856;2023-03-17T22:14:49;17.60;99.90
33149;DHT22;19506;51.040;3.856;2023-03-17T22:17:16;17.60;99.90
33149;DHT22;19506;51.040;3.856;2023-03-17T22:19:42;17.60;99.90
33149;DHT22;19506;51.040;3.856;2023-03-17T22:22:09;17.60;99.90
33149;DHT22;19506;51.040;3.856;2023-03-17T22:24:36;17.60;99.90
33149;DHT22;19506;51.040;3.856;2023-03-17T22:27:03;17.60;99.90
33149;DHT22;19506;51.040;3.856;2023-03-17T22:29:29;17.60;99.90
33149;DHT22;19506;51.040;3.856;2023-03-17T22:31:56;17.60;99.90
33149;DHT22;19506;51.040;3.856;2023-03-17T22:34:22;17.50;99.90
33149;DHT22;19506;51.040;3.856;2023-03-17T22:36:48;17.60;99.90
33149;DHT22;19506;51.040;3.856;2023-03-17T22:39:14;17.60;99.90
33149;DHT22;19506;51.040;3.856;2023-03-17T22:41:40;17.50;99.90
33149;DHT22;19506;51.040;3.856;2023-03-17T22:44:09;17.60;99.90
33149;DHT22;19506;51.040;3.856;2023-03-17T22:46:37;17.50;99.90
33149;DHT22;19506;51.040;3.856;2023-03-17T22:49:05;17.50;99.90
33149;DHT22;19506;51.040;3.856;2023-03-17T22:51:30;17.50;99.90
33149;DHT22;19506;51.040;3.856;2023-03-17T22:53:56;17.50;99.90
33149;DHT22;19506;51.040;3.856;2023-03-17T22:56:22;17.50;99.90
33149;DHT22;19506;51.040;3.856;2023-03-17T22:58:48;17.50;99.90
33149;DHT22;19506;51.040;3.856;2023-03-17T23:01:15;17.50;99.90
33149;DHT22;19506;51.040;3.856;2023-03-17T23:03:42;17.60;99.90
33149;DHT22;19506;51.040;3.856;2023-03-17T23:06:08;17.50;99.90
33149;DHT22;19506;51.040;3.856;2023-03-17T23:08:35;17.50;99.90
33149;DHT22;19506;51.040;3.856;2023-03-17T23:11:08;17.50;99.90
33149;DHT22;19506;51.040;3.856;2023-03-17T23:13:35;17.50;99.90
33149;DHT22;19506;51.040;3.856;2023-03-17T23:16:01;17.50;99.90
33149;DHT22;19506;51.040;3.856;2023-03-17T23:18:29;17.50;99.90
33149;DHT22;19506;51.040;3.856;2023-03-17T23:20:55;17.50;99.90
33149;DHT22;19506;51.040;3.856;2023-03-17T23:23:21;17.50;99.90
33149;DHT22;19506;51.040;3.856;2023-03-17T23:25:47;17.50;99.90
33149;DHT22;19506;51.040;3.856;2023-03-17T23:28:13;17.50;99.90
33149;DHT22;19506;51.040;3.856;2023-03-17T23:30:41;17.50;99.90
33149;DHT22;19506;51.040;3.856;2023-03-17T23:33:07;17.50;99.90
33149;DHT22;19506;51.040;3.856;2023-03-17T23:35:33;17.50;99.90
33149;DHT22;19506;51.040;3.856;2023-03-17T23:38:00;17.50;99.90
33149;DHT22;19506;51.040;3.856;2023-03-17T23:40:27;17.40;99.90
33149;DHT22;19506;51.040;3.856;2023-03-17T23:42:54;17.40;99.90
33149;DHT22;19506;51.040;3.856;2023-03-17T23:45:20;17.40;99.90
33149;DHT22;19506;51.040;3.856;2023-03-17T23:47:48;17.40;99.90
33149;DHT22;19506;51.040;3.856;2023-03-17T23:50:16;17.50;99.90
33149;DHT22;19506;51.040;3.856;2023-03-17T23:52:42;17.40;99.90
33149;DHT22;19506;51.040;3.856;2023-03-17T23:55:09;17.40;99.90
33149;DHT22;19506;51.040;3.856;2023-03-17T23:57:36;17.40;99.90
